This is the latest recevied weather packets stored in our database for station/object N3WMC. If no packets are shown the sender has not sent any weather packets the latest 10 day(s).
| Time | Temp. | Humidity | Pressure | Rain* | Wind** | Luminosity | Snow |
|---|---|---|---|---|---|---|---|
| 1777407826 | 19.44° C | 75% | 1014.5 hPa | 0 mm | - | 398 W/m² | - |
| 1777407523 | 20° C | 74% | 1014.3 hPa | 0 mm | - | 274 W/m² | - |
| 1777407222 | 20° C | 76% | 1014.4 hPa | 0 mm | - | 274 W/m² | - |
| 1777406918 | 21.11° C | 70% | 1014.5 hPa | 0 mm | - | 274 W/m² | - |
| 1777406613 | 19.44° C | 76% | 1014.6 hPa | 0 mm | - | 442 W/m² | - |
| 1777406309 | 18.89° C | 77% | 1014.5 hPa | 0 mm | - | 231 W/m² | - |
| 1777406008 | 19.44° C | 76% | 1014.5 hPa | 0 mm | - | 564 W/m² | - |
| 1777405705 | 18.89° C | 78% | 1014.7 hPa | 0 mm | - | 344 W/m² | - |
| 1777405401 | 19.44° C | 76% | 1014.6 hPa | 0 mm | - | 543 W/m² | - |
| 1777405098 | 20° C | 74% | 1014.6 hPa | 0 mm | - | 537 W/m² | - |
| 1777404792 | 18.33° C | 78% | 1015 hPa | 0 mm | - | 567 W/m² | - |
| 1777404489 | 17.22° C | 82% | 1014.9 hPa | 0 mm | - | 414 W/m² | - |
| 1777404184 | 17.22° C | 82% | 1015.1 hPa | 0 mm | - | 92 W/m² | - |
| 1777403881 | 17.22° C | 82% | 1015.2 hPa | 0 mm | - | 90 W/m² | - |
| 1777403575 | 17.22° C | 83% | 1015.2 hPa | 0 mm | - | 68 W/m² | - |
| 1777403275 | 17.22° C | 82% | 1015.3 hPa | 0 mm | - | 54 W/m² | - |
| 1777402975 | 16.67° C | 82% | 1015.3 hPa | 0 mm | - | 54 W/m² | - |
| 1777402671 | 16.67° C | 82% | 1015 hPa | 0 mm | - | 68 W/m² | - |
| 1777402370 | 16.67° C | 83% | 1015.1 hPa | 0 mm | - | 88 W/m² | - |
| 1777402069 | 16.67° C | 83% | 1015.2 hPa | 0 mm | - | 76 W/m² | - |
| 1777401764 | 16.67° C | 82% | 1015.2 hPa | 0 mm | - | 107 W/m² | - |
| 1777401459 | 16.67° C | 83% | 1015.2 hPa | 0 mm | - | 178 W/m² | - |
| 1777401155 | 16.11° C | 83% | 1015 hPa | 0 mm | - | 120 W/m² | - |
| 1777400851 | 16.67° C | 83% | 1015.2 hPa | 0 mm | - | 126 W/m² | - |
| 1777400547 | 16.11° C | 83% | 1015 hPa | 0 mm | - | 215 W/m² | - |
* Rain latest hour (hover to see other rain measurements)
** Current wind speed in m/s (hover to see current wind gust speed)